createdAt,value
2023-05-04T00:00:35.855Z,1007.78
2023-05-04T00:01:35.833Z,1007.80
2023-05-04T00:02:35.914Z,1007.79
2023-05-04T00:03:35.972Z,1007.84
2023-05-04T00:04:35.852Z,1007.79
2023-05-04T00:05:35.823Z,1007.81
2023-05-04T00:06:35.787Z,1007.78
2023-05-04T00:07:35.803Z,1007.75
2023-05-04T00:08:35.800Z,1007.80
2023-05-04T00:09:35.781Z,1007.78
2023-05-04T00:10:35.756Z,1007.79
2023-05-04T00:11:35.753Z,1007.80
2023-05-04T00:12:35.830Z,1007.74
2023-05-04T00:13:35.751Z,1007.75
2023-05-04T00:14:35.732Z,1007.74
2023-05-04T00:15:35.746Z,1007.78
2023-05-04T00:16:35.764Z,1007.76
2023-05-04T00:17:35.732Z,1007.73
2023-05-04T00:18:35.712Z,1007.80
2023-05-04T00:19:35.713Z,1007.78
2023-05-04T00:20:35.719Z,1007.78
2023-05-04T00:21:35.682Z,1007.73
2023-05-04T00:22:36.722Z,1007.75
2023-05-04T00:23:35.684Z,1007.76
2023-05-04T00:24:35.670Z,1007.77
2023-05-04T00:25:35.666Z,1007.74
2023-05-04T00:26:35.654Z,1007.72
2023-05-04T00:27:35.615Z,1007.71
2023-05-04T00:28:35.619Z,1007.71
2023-05-04T00:29:35.644Z,1007.72
2023-05-04T00:30:35.610Z,1007.71
2023-05-04T00:31:35.647Z,1007.70
2023-05-04T00:32:35.605Z,1007.70
2023-05-04T00:33:35.574Z,1007.67
2023-05-04T00:34:35.634Z,1007.65
2023-05-04T00:35:35.595Z,1007.65
2023-05-04T00:36:35.566Z,1007.67
2023-05-04T00:37:35.556Z,1007.70
2023-05-04T00:38:35.537Z,1007.64
2023-05-04T00:39:35.547Z,1007.66
2023-05-04T00:40:35.535Z,1007.66
2023-05-04T00:41:35.519Z,1007.62
2023-05-04T00:42:35.580Z,1007.61
2023-05-04T00:43:35.511Z,1007.62
2023-05-04T00:44:35.509Z,1007.58
2023-05-04T00:45:35.511Z,1007.62
2023-05-04T00:46:35.556Z,1007.60
2023-05-04T00:47:35.567Z,1007.65
2023-05-04T00:48:35.469Z,1007.53
2023-05-04T00:49:35.520Z,1007.54
2023-05-04T00:50:35.485Z,1007.56
2023-05-04T00:51:35.454Z,1007.50
2023-05-04T00:52:35.450Z,1007.54
2023-05-04T00:53:35.434Z,1007.51
2023-05-04T00:54:35.442Z,1007.52
2023-05-04T00:55:35.419Z,1007.55
2023-05-04T00:56:35.421Z,1007.55
2023-05-04T00:57:35.430Z,1007.49
2023-05-04T00:58:35.430Z,1007.48
2023-05-04T00:59:35.422Z,1007.46
2023-05-04T01:00:35.421Z,1007.47
2023-05-04T01:01:35.419Z,1007.45
2023-05-04T01:02:35.450Z,1007.43
2023-05-04T01:03:35.412Z,1007.44
2023-05-04T01:04:35.345Z,1007.37
2023-05-04T01:05:35.420Z,1007.39
2023-05-04T01:06:35.349Z,1007.46
2023-05-04T01:07:35.333Z,1007.45
2023-05-04T01:08:35.324Z,1007.44
2023-05-04T01:09:35.303Z,1007.41
2023-05-04T01:10:35.302Z,1007.45
2023-05-04T01:11:35.321Z,1007.44
2023-05-04T01:12:35.346Z,1007.42
2023-05-04T01:13:35.280Z,1007.42
2023-05-04T01:14:35.305Z,1007.39
2023-05-04T01:15:35.276Z,1007.45
2023-05-04T01:16:35.332Z,1007.49
2023-05-04T01:17:35.274Z,1007.46
2023-05-04T01:18:35.242Z,1007.42
2023-05-04T01:19:35.248Z,1007.41
2023-05-04T01:20:35.243Z,1007.43
2023-05-04T01:21:35.257Z,1007.36
2023-05-04T01:22:35.223Z,1007.39
2023-05-04T01:23:35.211Z,1007.37
2023-05-04T01:24:35.217Z,1007.38
2023-05-04T01:25:35.219Z,1007.34
2023-05-04T01:26:35.175Z,1007.37
2023-05-04T01:27:35.169Z,1007.41
2023-05-04T01:29:07.166Z,1007.33
2023-05-04T01:29:35.172Z,1007.35
2023-05-04T01:30:35.209Z,1007.42
2023-05-04T01:31:35.149Z,1007.41
2023-05-04T01:32:35.175Z,1007.40
2023-05-04T01:33:35.143Z,1007.43
2023-05-04T01:34:35.130Z,1007.40
2023-05-04T01:35:35.113Z,1007.40
2023-05-04T01:36:35.100Z,1007.46
2023-05-04T01:37:36.168Z,1007.47
2023-05-04T01:38:35.079Z,1007.46
2023-05-04T01:39:35.085Z,1007.46
2023-05-04T01:40:35.074Z,1007.43
2023-05-04T01:41:35.090Z,1007.44
2023-05-04T01:42:35.061Z,1007.47
2023-05-04T01:43:35.074Z,1007.51
2023-05-04T01:44:35.853Z,1007.51
2023-05-04T01:45:35.037Z,1007.50
2023-05-04T01:46:35.077Z,1007.55
2023-05-04T01:47:35.059Z,1007.47
2023-05-04T01:48:35.028Z,1007.47
2023-05-04T01:49:34.995Z,1007.47
2023-05-04T01:50:34.976Z,1007.42
2023-05-04T01:51:35.015Z,1007.50
2023-05-04T01:52:34.964Z,1007.47
2023-05-04T01:53:34.970Z,1007.46
2023-05-04T01:54:34.945Z,1007.52
2023-05-04T01:55:34.985Z,1007.43
2023-05-04T01:56:34.946Z,1007.48
2023-05-04T01:57:34.980Z,1007.43
2023-05-04T01:58:34.945Z,1007.46
2023-05-04T01:59:34.907Z,1007.46
2023-05-04T02:00:34.915Z,1007.46
2023-05-04T02:01:34.922Z,1007.44
2023-05-04T02:02:35.013Z,1007.45
2023-05-04T02:03:34.975Z,1007.47
2023-05-04T02:04:34.873Z,1007.42
2023-05-04T02:05:34.890Z,1007.47
2023-05-04T02:06:35.702Z,1007.45
2023-05-04T02:07:34.872Z,1007.46
2023-05-04T02:08:34.861Z,1007.48
2023-05-04T02:09:34.836Z,1007.42
2023-05-04T02:10:34.866Z,1007.40
2023-05-04T02:11:35.405Z,1007.38
2023-05-04T02:12:34.864Z,1007.33
2023-05-04T02:13:34.832Z,1007.38
2023-05-04T02:14:34.842Z,1007.42
2023-05-04T02:15:34.833Z,1007.43
2023-05-04T02:16:34.796Z,1007.41
2023-05-04T02:17:34.836Z,1007.39
2023-05-04T02:18:34.763Z,1007.40
2023-05-04T02:19:34.757Z,1007.35
2023-05-04T02:20:34.785Z,1007.38
2023-05-04T02:21:34.750Z,1007.40
2023-05-04T02:22:34.732Z,1007.44
2023-05-04T02:23:34.735Z,1007.39
2023-05-04T02:24:34.737Z,1007.40
2023-05-04T02:25:34.739Z,1007.33
2023-05-04T02:26:34.728Z,1007.35
2023-05-04T02:27:34.689Z,1007.32
2023-05-04T02:28:34.694Z,1007.35
2023-05-04T02:29:34.721Z,1007.34
2023-05-04T02:30:34.717Z,1007.35
2023-05-04T02:31:34.719Z,1007.38
2023-05-04T02:32:34.721Z,1007.35
2023-05-04T02:33:34.639Z,1007.31
2023-05-04T02:34:34.643Z,1007.37
2023-05-04T02:35:34.668Z,1007.35
2023-05-04T02:36:34.622Z,1007.33
2023-05-04T02:37:34.614Z,1007.43
2023-05-04T02:38:34.625Z,1007.36
2023-05-04T02:39:34.620Z,1007.34
2023-05-04T02:40:34.612Z,1007.33
2023-05-04T02:41:34.576Z,1007.31
2023-05-04T02:42:34.636Z,1007.32
2023-05-04T02:43:34.600Z,1007.27
2023-05-04T02:44:34.564Z,1007.28
2023-05-04T02:45:34.565Z,1007.27
2023-05-04T02:46:34.586Z,1007.25
2023-05-04T02:47:34.537Z,1007.25
2023-05-04T02:48:34.542Z,1007.26
2023-05-04T02:49:34.539Z,1007.33
2023-05-04T02:50:34.515Z,1007.22
2023-05-04T02:51:34.552Z,1007.36
2023-05-04T02:52:34.516Z,1007.35
2023-05-04T02:53:34.490Z,1007.40
2023-05-04T02:55:07.349Z,1007.39
2023-05-04T02:55:34.489Z,1007.39
2023-05-04T02:56:34.516Z,1007.46
2023-05-04T02:57:34.542Z,1007.37
2023-05-04T02:58:34.460Z,1007.37
2023-05-04T02:59:34.454Z,1007.44
2023-05-04T03:00:34.453Z,1007.36
2023-05-04T03:01:35.478Z,1007.34
2023-05-04T03:02:34.513Z,1007.40
2023-05-04T03:03:34.453Z,1007.35
2023-05-04T03:04:34.469Z,1007.36
2023-05-04T03:05:34.433Z,1007.38
2023-05-04T03:06:34.440Z,1007.35
2023-05-04T03:07:34.386Z,1007.33
2023-05-04T03:08:34.444Z,1007.39
2023-05-04T03:09:34.391Z,1007.38
2023-05-04T03:10:34.392Z,1007.39
2023-05-04T03:11:34.381Z,1007.38
2023-05-04T03:12:34.379Z,1007.36
2023-05-04T03:13:34.433Z,1007.33
2023-05-04T03:14:34.374Z,1007.36
2023-05-04T03:15:34.353Z,1007.33
2023-05-04T03:16:34.374Z,1007.34
2023-05-04T03:17:34.372Z,1007.33
2023-05-04T03:18:53.255Z,1007.36
2023-05-04T03:19:34.333Z,1007.43
2023-05-04T03:20:34.322Z,1007.37
2023-05-04T03:21:34.311Z,1007.36
2023-05-04T03:22:34.291Z,1007.40
2023-05-04T03:23:34.297Z,1007.38
2023-05-04T03:24:34.295Z,1007.35
2023-05-04T03:25:34.258Z,1007.27
2023-05-04T03:26:34.254Z,1007.35
2023-05-04T03:27:34.264Z,1007.33
2023-05-04T03:28:34.270Z,1007.32
2023-05-04T03:29:34.272Z,1007.31
2023-05-04T03:30:34.234Z,1007.33
2023-05-04T03:31:34.265Z,1007.29
2023-05-04T03:32:34.284Z,1007.31
2023-05-04T03:33:34.208Z,1007.28
2023-05-04T03:34:34.207Z,1007.34
2023-05-04T03:35:34.187Z,1007.22
2023-05-04T03:36:34.163Z,1007.24
2023-05-04T03:37:34.190Z,1007.25
2023-05-04T03:38:34.146Z,1007.15
2023-05-04T03:39:34.194Z,1007.26
2023-05-04T03:40:34.126Z,1007.23
2023-05-04T03:41:34.153Z,1007.26
2023-05-04T03:42:34.116Z,1007.28
2023-05-04T03:43:34.114Z,1007.24
2023-05-04T03:44:34.116Z,1007.17
2023-05-04T03:45:34.169Z,1007.24
2023-05-04T03:46:34.128Z,1007.19
2023-05-04T04:02:48.649Z,1007.32
2023-05-04T04:03:48.664Z,1007.33
2023-05-04T04:04:48.501Z,1007.31
2023-05-04T04:05:49.656Z,1007.30
2023-05-04T04:06:49.630Z,1007.22
2023-05-04T04:07:49.625Z,1007.21
2023-05-04T04:08:49.612Z,1007.19
2023-05-04T04:09:49.573Z,1007.19
2023-05-04T04:10:49.591Z,1007.20
2023-05-04T04:11:49.574Z,1007.13
2023-05-04T04:12:49.603Z,1007.15
2023-05-04T04:13:49.559Z,1007.14
2023-05-04T04:14:49.549Z,1007.18
2023-05-04T04:15:49.613Z,1007.06
2023-05-04T04:16:49.564Z,1007.13
2023-05-04T04:17:49.563Z,1007.02
2023-05-04T04:18:49.627Z,1006.99
2023-05-04T04:19:49.504Z,1007.03
2023-05-04T04:20:49.517Z,1007.02
2023-05-04T04:21:49.502Z,1007.00
2023-05-04T04:22:49.472Z,1007.00
2023-05-04T04:23:49.510Z,1006.97
2023-05-04T04:24:49.477Z,1006.89
2023-05-04T04:25:49.482Z,1006.85
2023-05-04T04:26:49.502Z,1006.81
2023-05-04T04:27:49.462Z,1006.77
2023-05-04T04:28:49.480Z,1006.74
2023-05-04T04:29:49.481Z,1006.77
2023-05-04T04:30:49.412Z,1006.80
2023-05-04T04:31:50.519Z,1006.75
2023-05-04T04:32:49.472Z,1006.77
2023-05-04T04:33:49.412Z,1006.72
2023-05-04T04:34:49.406Z,1006.71
2023-05-04T04:35:49.389Z,1006.69
2023-05-04T04:36:49.392Z,1006.66
2023-05-04T04:37:49.783Z,1006.59
2023-05-04T04:38:49.370Z,1006.65
2023-05-04T04:39:49.373Z,1006.58
2023-05-04T04:40:49.358Z,1006.48
2023-05-04T04:41:49.351Z,1006.49
2023-05-04T04:42:49.394Z,1006.44
2023-05-04T04:43:49.374Z,1006.45
2023-05-04T04:44:49.328Z,1006.42
2023-05-04T04:45:49.330Z,1006.38
2023-05-04T04:46:49.343Z,1006.40
2023-05-04T04:47:49.344Z,1006.36
2023-05-04T04:48:49.326Z,1006.34
2023-05-04T04:49:49.316Z,1006.26
2023-05-04T04:50:49.331Z,1006.29
2023-05-04T04:51:49.294Z,1006.28
2023-05-04T04:52:49.274Z,1006.25
2023-05-04T04:53:49.271Z,1006.22
2023-05-04T04:54:49.263Z,1006.15
2023-05-04T04:55:49.270Z,1006.15
2023-05-04T04:56:49.266Z,1006.11
2023-05-04T04:57:49.285Z,1006.11
2023-05-04T04:58:49.227Z,1006.15
2023-05-04T04:59:49.249Z,1006.12
2023-05-04T05:00:49.267Z,1006.13
2023-05-04T05:01:49.211Z,1006.02
2023-05-04T05:02:49.296Z,1006.02
2023-05-04T05:04:21.707Z,1006.06
2023-05-04T05:04:49.376Z,1006.01
2023-05-04T05:05:49.195Z,1006.03
2023-05-04T05:06:49.821Z,1006.04
2023-05-04T05:07:49.167Z,1005.97
2023-05-04T05:08:49.157Z,1006.05
2023-05-04T05:09:49.219Z,1006.00
2023-05-04T05:10:49.129Z,1006.00
2023-05-04T05:11:49.129Z,1005.98
2023-05-04T05:12:49.871Z,1005.98
2023-05-04T05:13:49.132Z,1005.89
2023-05-04T05:14:49.133Z,1005.89
2023-05-04T05:15:49.189Z,1005.81
2023-05-04T05:16:49.129Z,1005.85
2023-05-04T05:17:49.769Z,1005.81
2023-05-04T05:18:49.062Z,1005.83
2023-05-04T05:19:50.076Z,1005.75
2023-05-04T05:20:49.048Z,1005.72
2023-05-04T05:21:49.036Z,1005.75
2023-05-04T05:22:49.039Z,1005.67
2023-05-04T05:23:49.032Z,1005.61
2023-05-04T05:25:20.963Z,1005.62
2023-05-04T05:25:49.009Z,1005.59
2023-05-04T05:26:48.992Z,1005.62
2023-05-04T05:27:49.009Z,1005.56
2023-05-04T05:28:48.984Z,1005.61
2023-05-04T05:29:48.977Z,1005.57
2023-05-04T05:30:48.989Z,1005.64
2023-05-04T05:31:48.977Z,1005.65
2023-05-04T05:32:49.516Z,1005.66
2023-05-04T05:33:49.940Z,1005.69
2023-05-04T05:34:48.924Z,1005.64
2023-05-04T05:35:48.925Z,1005.68
2023-05-04T05:36:48.948Z,1005.65
2023-05-04T05:37:49.009Z,1005.61
2023-05-04T05:38:50.343Z,1005.64
2023-05-04T05:39:49.889Z,1005.64
2023-05-04T05:40:48.912Z,1005.64
2023-05-04T05:41:48.882Z,1005.56
2023-05-04T05:42:48.862Z,1005.61
2023-05-04T05:43:48.984Z,1005.72
2023-05-04T05:44:48.848Z,1005.65
2023-05-04T05:45:48.885Z,1005.68
2023-05-04T05:46:48.849Z,1005.67
2023-05-04T05:47:48.858Z,1005.69
2023-05-04T05:48:48.860Z,1005.75
2023-05-04T05:49:48.822Z,1005.76
2023-05-04T05:50:48.823Z,1005.73
2023-05-04T05:51:48.808Z,1005.73
2023-05-04T05:52:48.788Z,1005.75
2023-05-04T05:53:48.812Z,1005.72
2023-05-04T05:54:48.773Z,1005.69
2023-05-04T05:55:48.754Z,1005.76
2023-05-04T05:56:48.773Z,1005.69
2023-05-04T05:57:48.786Z,1005.71
2023-05-04T05:58:48.740Z,1005.75
2023-05-04T05:59:48.765Z,1005.72
2023-05-04T06:00:48.724Z,1005.78
2023-05-04T06:01:48.743Z,1005.76
2023-05-04T06:02:48.806Z,1005.75
2023-05-04T06:03:48.863Z,1005.68
2023-05-04T06:04:48.728Z,1005.73
2023-05-04T06:05:48.687Z,1005.70
2023-05-04T06:06:48.681Z,1005.67
2023-05-04T06:07:48.656Z,1005.68
2023-05-04T06:08:48.656Z,1005.65
2023-05-04T06:09:48.658Z,1005.55
2023-05-04T06:10:48.657Z,1005.56
2023-05-04T06:11:48.670Z,1005.53
2023-05-04T06:12:48.645Z,1005.55
2023-05-04T06:13:49.609Z,1005.50
2023-05-04T06:14:48.592Z,1005.52
2023-05-04T06:15:48.599Z,1005.47
2023-05-04T06:16:48.650Z,1005.46
2023-05-04T06:17:48.657Z,1005.51
2023-05-04T06:18:48.558Z,1005.44
2023-05-04T06:19:50.863Z,1005.43
2023-05-04T06:20:49.547Z,1005.48
2023-05-04T06:21:48.609Z,1005.43
2023-05-04T06:22:48.533Z,1005.38
2023-05-04T06:23:48.547Z,1005.32
2023-05-04T06:24:48.524Z,1005.31
2023-05-04T06:25:49.355Z,1005.29
2023-05-04T06:26:48.539Z,1005.27
2023-05-04T06:27:48.540Z,1005.26
2023-05-04T06:28:48.534Z,1005.24
2023-05-04T06:29:48.506Z,1005.22
2023-05-04T06:30:48.546Z,1005.19
2023-05-04T06:31:48.617Z,1005.22
2023-05-04T06:32:48.569Z,1005.21
2023-05-04T06:33:48.529Z,1005.23
2023-05-04T06:34:48.531Z,1005.26
2023-05-04T06:35:48.428Z,1005.23
2023-05-04T06:36:48.433Z,1005.15
2023-05-04T06:37:48.430Z,1005.19
2023-05-04T06:38:48.427Z,1005.23
2023-05-04T06:39:48.409Z,1005.23
2023-05-04T06:40:48.461Z,1005.20
2023-05-04T06:41:48.411Z,1005.14
2023-05-04T06:42:48.494Z,1005.11
2023-05-04T06:43:49.412Z,1005.09
2023-05-04T06:44:48.409Z,1005.06
2023-05-04T06:45:48.430Z,1005.08
2023-05-04T06:46:48.382Z,1005.02
2023-05-04T06:47:48.449Z,1005.03
2023-05-04T06:48:48.369Z,1004.96
2023-05-04T06:49:48.371Z,1004.88
2023-05-04T06:50:48.352Z,1004.88
2023-05-04T06:51:48.346Z,1004.86
2023-05-04T06:52:48.326Z,1004.88
2023-05-04T06:53:48.297Z,1004.89
2023-05-04T06:54:48.331Z,1004.93
2023-05-04T06:55:48.308Z,1004.84
2023-05-04T06:56:48.325Z,1004.88
2023-05-04T06:57:48.272Z,1004.84
2023-05-04T06:58:48.343Z,1004.86
2023-05-04T06:59:48.281Z,1004.84
2023-05-04T07:00:48.291Z,1004.85
2023-05-04T07:01:48.250Z,1004.90
2023-05-04T07:02:48.285Z,1004.92
2023-05-04T07:03:48.290Z,1004.87
2023-05-04T07:04:48.233Z,1004.90
2023-05-04T07:05:48.231Z,1004.90
2023-05-04T07:06:48.223Z,1004.90
2023-05-04T07:07:51.022Z,1004.85
2023-05-04T07:08:48.185Z,1004.89
2023-05-04T07:09:48.179Z,1004.88
2023-05-04T07:10:48.198Z,1004.87
2023-05-04T07:11:48.157Z,1004.86
2023-05-04T07:12:48.304Z,1004.79
2023-05-04T07:13:48.170Z,1004.84
2023-05-04T07:14:48.178Z,1004.81
2023-05-04T07:15:48.180Z,1004.89
2023-05-04T07:16:48.320Z,1004.86
2023-05-04T07:17:48.172Z,1004.87
2023-05-04T07:18:48.098Z,1004.80
2023-05-04T07:19:48.107Z,1004.87
2023-05-04T07:20:48.111Z,1004.87
2023-05-04T07:21:48.122Z,1004.84
2023-05-04T07:22:48.081Z,1004.88
2023-05-04T07:23:48.078Z,1004.86
2023-05-04T07:24:48.204Z,1004.83
2023-05-04T07:25:48.079Z,1004.89
2023-05-04T07:26:48.062Z,1004.83
2023-05-04T07:27:48.093Z,1004.82
2023-05-04T07:28:48.789Z,1004.87
2023-05-04T07:29:48.034Z,1004.78
2023-05-04T07:30:48.023Z,1004.78
2023-05-04T07:31:48.020Z,1004.79
2023-05-04T07:32:48.050Z,1004.75
2023-05-04T07:33:47.994Z,1004.63
2023-05-04T07:34:48.010Z,1004.68
2023-05-04T07:35:47.978Z,1004.62
2023-05-04T07:36:47.958Z,1004.63
2023-05-04T07:37:47.978Z,1004.62
2023-05-04T07:38:47.994Z,1004.61
2023-05-04T07:39:48.000Z,1004.62
2023-05-04T07:40:47.941Z,1004.60
2023-05-04T07:41:49.623Z,1004.58
2023-05-04T07:42:47.976Z,1004.57
2023-05-04T07:43:47.971Z,1004.57
2023-05-04T07:44:47.918Z,1004.54
2023-05-04T07:45:48.035Z,1004.53
2023-05-04T07:46:48.039Z,1004.48
2023-05-04T07:47:47.934Z,1004.45
2023-05-04T07:48:47.969Z,1004.43
2023-05-04T07:49:47.890Z,1004.46
2023-05-04T07:50:47.871Z,1004.44
2023-05-04T07:51:47.878Z,1004.44
2023-05-04T07:52:47.852Z,1004.44
2023-05-04T07:53:47.889Z,1004.46
2023-05-04T07:54:47.878Z,1004.40
2023-05-04T07:55:47.847Z,1004.43
2023-05-04T07:56:47.869Z,1004.40
2023-05-04T07:57:47.832Z,1004.32
2023-05-04T07:58:47.809Z,1004.31
2023-05-04T07:59:47.795Z,1004.32
2023-05-04T08:00:47.809Z,1004.25
2023-05-04T08:01:47.807Z,1004.23
2023-05-04T08:02:47.857Z,1004.25
2023-05-04T08:03:47.764Z,1004.19
2023-05-04T08:04:47.781Z,1004.17
2023-05-04T08:05:47.751Z,1004.09
2023-05-04T08:06:47.777Z,1004.08
2023-05-04T08:07:47.737Z,1004.02
2023-05-04T08:08:47.791Z,1004.07
2023-05-04T08:09:47.738Z,1003.99
2023-05-04T08:10:47.712Z,1003.96
2023-05-04T08:11:48.265Z,1003.97
2023-05-04T08:12:47.727Z,1003.97
2023-05-04T08:13:47.710Z,1003.96
2023-05-04T08:14:47.707Z,1004.00
2023-05-04T08:15:47.698Z,1003.95
2023-05-04T08:16:47.683Z,1003.96
2023-05-04T08:17:47.685Z,1003.96
2023-05-04T08:18:47.683Z,1003.99
2023-05-04T08:19:47.654Z,1003.97
2023-05-04T08:20:47.656Z,1003.95
2023-05-04T08:21:47.666Z,1003.94
2023-05-04T08:22:47.663Z,1003.96
2023-05-04T08:23:47.647Z,1003.97
2023-05-04T08:24:47.723Z,1003.92
2023-05-04T08:25:47.607Z,1003.90
2023-05-04T08:26:59.761Z,1003.91
2023-05-04T08:27:49.626Z,1003.90
2023-05-04T08:28:47.577Z,1003.91
2023-05-04T08:29:47.593Z,1003.86
2023-05-04T08:30:47.576Z,1003.85
2023-05-04T08:31:47.613Z,1003.92
2023-05-04T08:32:47.624Z,1003.90
2023-05-04T08:33:47.541Z,1003.88
2023-05-04T08:34:47.535Z,1003.84
2023-05-04T08:35:47.538Z,1003.86
2023-05-04T08:36:47.536Z,1003.89
2023-05-04T08:37:47.547Z,1003.80
2023-05-04T08:38:47.514Z,1003.78
2023-05-04T08:39:47.535Z,1003.81
2023-05-04T08:40:49.967Z,1003.72
2023-05-04T08:41:47.473Z,1003.79
2023-05-04T08:42:47.529Z,1003.76
2023-05-04T08:43:47.506Z,1003.73
2023-05-04T08:44:47.483Z,1003.78
2023-05-04T08:45:47.499Z,1003.74
2023-05-04T08:46:47.461Z,1003.69
2023-05-04T08:47:47.474Z,1003.70
2023-05-04T08:48:47.439Z,1003.72
2023-05-04T08:49:47.419Z,1003.70
2023-05-04T08:50:47.475Z,1003.68
2023-05-04T08:51:47.438Z,1003.73
2023-05-04T08:52:47.450Z,1003.66
2023-05-04T08:53:47.451Z,1003.72
2023-05-04T08:54:47.396Z,1003.76
2023-05-04T08:55:47.427Z,1003.69
2023-05-04T08:56:47.470Z,1003.65
2023-05-04T08:57:48.177Z,1003.76
2023-05-04T08:58:47.418Z,1003.66
2023-05-04T08:59:47.380Z,1003.66
2023-05-04T09:00:47.993Z,1003.63
2023-05-04T09:01:47.405Z,1003.65
2023-05-04T09:02:47.449Z,1003.61
2023-05-04T09:03:47.575Z,1003.61
2023-05-04T09:04:47.324Z,1003.56
2023-05-04T09:05:47.365Z,1003.49
2023-05-04T09:06:47.544Z,1003.54
2023-05-04T09:07:47.315Z,1003.51
2023-05-04T09:08:47.327Z,1003.48
2023-05-04T09:09:47.910Z,1003.48
2023-05-04T09:10:47.367Z,1003.47
2023-05-04T09:11:47.283Z,1003.49
2023-05-04T09:12:47.295Z,1003.47
2023-05-04T09:13:47.300Z,1003.46
2023-05-04T09:14:47.281Z,1003.51
2023-05-04T09:15:47.301Z,1003.48
2023-05-04T09:16:47.301Z,1003.49
2023-05-04T09:17:57.021Z,1003.54
2023-05-04T09:18:49.237Z,1003.52
2023-05-04T09:19:47.259Z,1003.56
2023-05-04T09:20:47.275Z,1003.56
2023-05-04T09:21:47.259Z,1003.55
2023-05-04T09:22:47.283Z,1003.53
2023-05-04T09:23:47.258Z,1003.54
2023-05-04T09:24:47.189Z,1003.56
2023-05-04T09:25:47.216Z,1003.56
2023-05-04T09:26:47.223Z,1003.55
2023-05-04T09:27:47.172Z,1003.52
2023-05-04T09:28:47.190Z,1003.55
2023-05-04T09:29:47.250Z,1003.54
2023-05-04T09:30:47.186Z,1003.57
2023-05-04T09:31:47.158Z,1003.48
2023-05-04T09:32:47.197Z,1003.46
2023-05-04T09:33:47.109Z,1003.47
2023-05-04T09:34:47.126Z,1003.46
2023-05-04T09:35:47.101Z,1003.42
2023-05-04T09:36:47.135Z,1003.47
2023-05-04T09:37:47.103Z,1003.46
2023-05-04T09:38:47.100Z,1003.46
2023-05-04T09:39:47.081Z,1003.43
2023-05-04T09:40:47.055Z,1003.46
2023-05-04T09:41:47.127Z,1003.44
2023-05-04T09:42:47.071Z,1003.38
2023-05-04T09:43:47.052Z,1003.40
2023-05-04T09:44:47.050Z,1003.40
2023-05-04T09:45:47.054Z,1003.36
2023-05-04T09:46:47.078Z,1003.39
2023-05-04T09:47:47.083Z,1003.34
2023-05-04T09:48:47.044Z,1003.38
2023-05-04T09:49:47.035Z,1003.34
2023-05-04T09:50:47.047Z,1003.37
2023-05-04T09:51:46.983Z,1003.42
2023-05-04T09:52:47.028Z,1003.39
2023-05-04T09:53:46.983Z,1003.34
2023-05-04T09:54:47.027Z,1003.37
2023-05-04T09:55:46.951Z,1003.32
2023-05-04T09:56:47.075Z,1003.33
2023-05-04T09:57:46.939Z,1003.29
2023-05-04T09:58:46.964Z,1003.38
2023-05-04T09:59:46.967Z,1003.28
2023-05-04T10:00:46.965Z,1003.31
2023-05-04T10:01:46.912Z,1003.32
2023-05-04T10:02:46.991Z,1003.24
2023-05-04T10:03:46.898Z,1003.34
2023-05-04T10:04:46.930Z,1003.24
2023-05-04T10:05:46.911Z,1003.23
2023-05-04T10:06:46.852Z,1003.26
2023-05-04T10:07:46.857Z,1003.25
2023-05-04T10:08:46.884Z,1003.26
2023-05-04T10:09:46.873Z,1003.17
2023-05-04T10:10:46.905Z,1003.19
2023-05-04T10:11:46.832Z,1003.19
2023-05-04T10:12:46.873Z,1003.14
2023-05-04T10:13:46.832Z,1003.14
2023-05-04T10:14:46.983Z,1003.09
2023-05-04T10:15:52.051Z,1003.03
2023-05-04T10:16:46.792Z,1003.04
2023-05-04T10:17:46.820Z,1003.02
2023-05-04T10:18:46.769Z,1003.06
2023-05-04T10:19:46.752Z,1002.97
2023-05-04T10:20:46.789Z,1003.02
2023-05-04T10:21:46.762Z,1003.01
2023-05-04T10:22:46.724Z,1002.94
2023-05-04T10:23:46.726Z,1002.96
2023-05-04T10:24:46.755Z,1003.00
2023-05-04T10:25:46.752Z,1002.96
2023-05-04T10:26:46.701Z,1002.98
2023-05-04T10:27:46.714Z,1002.94
2023-05-04T10:28:46.699Z,1002.89
2023-05-04T10:29:46.702Z,1002.87
2023-05-04T10:30:46.698Z,1002.84
2023-05-04T10:31:46.747Z,1002.83
2023-05-04T10:32:46.703Z,1002.91
2023-05-04T10:33:46.687Z,1002.86
2023-05-04T10:34:46.648Z,1002.88
2023-05-04T10:35:46.646Z,1002.82
2023-05-04T10:36:46.651Z,1002.87
2023-05-04T10:37:46.636Z,1002.86
2023-05-04T10:38:46.671Z,1002.82
2023-05-04T10:39:46.627Z,1002.78
2023-05-04T10:40:46.675Z,1002.81
2023-05-04T10:41:46.598Z,1002.77
2023-05-04T10:42:46.634Z,1002.80
2023-05-04T10:43:46.581Z,1002.77
2023-05-04T10:44:46.699Z,1002.72
2023-05-04T10:45:46.623Z,1002.76
2023-05-04T10:46:46.652Z,1002.70
2023-05-04T10:47:47.291Z,1002.72
2023-05-04T10:48:46.572Z,1002.69
2023-05-04T10:49:46.534Z,1002.62
2023-05-04T10:50:46.589Z,1002.63
2023-05-04T10:51:49.362Z,1002.65
2023-05-04T10:52:47.539Z,1002.59
2023-05-04T10:53:46.524Z,1002.60
2023-05-04T10:54:46.565Z,1002.51
2023-05-04T10:55:46.494Z,1002.52
2023-05-04T10:56:46.498Z,1002.50
2023-05-04T10:57:46.482Z,1002.48
2023-05-04T10:58:46.540Z,1002.51
2023-05-04T10:59:46.479Z,1002.47
2023-05-04T11:00:46.475Z,1002.44
2023-05-04T11:01:46.463Z,1002.44
2023-05-04T11:02:46.543Z,1002.39
2023-05-04T11:03:46.480Z,1002.41
2023-05-04T11:04:46.456Z,1002.39
2023-05-04T11:05:46.425Z,1002.41
2023-05-04T11:06:46.435Z,1002.34
2023-05-04T11:07:46.423Z,1002.36
2023-05-04T11:08:46.424Z,1002.37
2023-05-04T11:09:46.457Z,1002.33
2023-05-04T11:10:46.409Z,1002.34
2023-05-04T11:11:46.377Z,1002.35
2023-05-04T11:12:46.462Z,1002.39
2023-05-04T11:13:46.385Z,1002.31
2023-05-04T11:14:46.387Z,1002.22
2023-05-04T11:15:46.356Z,1002.26
2023-05-04T11:16:46.404Z,1002.25
2023-05-04T11:17:46.409Z,1002.25
2023-05-04T11:18:46.342Z,1002.24
2023-05-04T11:19:46.365Z,1002.23
2023-05-04T11:20:46.338Z,1002.26
2023-05-04T11:21:46.305Z,1002.27
2023-05-04T11:22:46.294Z,1002.20
2023-05-04T11:23:46.313Z,1002.24
2023-05-04T11:24:46.303Z,1002.23
2023-05-04T11:25:46.298Z,1002.18
2023-05-04T11:26:46.370Z,1002.22
2023-05-04T11:27:46.273Z,1002.23
2023-05-04T11:28:46.342Z,1002.13
2023-05-04T11:29:46.252Z,1002.15
2023-05-04T11:30:46.439Z,1002.10
2023-05-04T11:31:46.245Z,1002.12
2023-05-04T11:32:46.251Z,1002.15
2023-05-04T11:33:46.263Z,1002.13
2023-05-04T11:34:46.200Z,1002.11
2023-05-04T11:35:46.222Z,1002.13
2023-05-04T11:36:47.153Z,1002.08
2023-05-04T11:37:46.199Z,1002.11
2023-05-04T11:38:46.179Z,1002.04
2023-05-04T11:39:46.172Z,1002.00
2023-05-04T11:40:46.152Z,1002.03
2023-05-04T11:41:46.196Z,1002.01
2023-05-04T11:42:46.162Z,1001.89
2023-05-04T11:43:46.164Z,1001.92
2023-05-04T11:44:46.152Z,1001.90
2023-05-04T11:45:46.123Z,1001.91
2023-05-04T11:46:46.303Z,1001.84
2023-05-04T11:47:46.129Z,1001.90
2023-05-04T11:48:46.110Z,1001.78
2023-05-04T11:49:46.905Z,1001.86
2023-05-04T11:50:46.109Z,1001.79
2023-05-04T11:51:46.108Z,1001.71
2023-05-04T11:52:46.120Z,1001.71
2023-05-04T11:53:46.090Z,1001.72
2023-05-04T11:54:46.069Z,1001.66
2023-05-04T11:55:46.080Z,1001.62
2023-05-04T11:56:47.046Z,1001.66
2023-05-04T11:57:46.051Z,1001.65
2023-05-04T11:58:46.050Z,1001.61
2023-05-04T11:59:46.055Z,1001.63
2023-05-04T12:00:46.118Z,1001.57
2023-05-04T12:01:46.062Z,1001.57
2023-05-04T12:02:46.134Z,1001.58
2023-05-04T12:03:53.838Z,1001.57
2023-05-04T12:04:48.005Z,1001.60
2023-05-04T12:05:45.991Z,1001.60
2023-05-04T12:06:45.992Z,1001.61
2023-05-04T12:07:45.981Z,1001.54
2023-05-04T12:08:45.966Z,1001.61
2023-05-04T12:09:45.950Z,1001.55
2023-05-04T12:10:45.987Z,1001.52
2023-05-04T12:11:46.152Z,1001.59
2023-05-04T12:12:45.989Z,1001.56
2023-05-04T12:13:45.942Z,1001.55
2023-05-04T12:14:45.905Z,1001.54
2023-05-04T12:15:45.946Z,1001.51
2023-05-04T12:16:45.983Z,1001.52
2023-05-04T12:17:45.933Z,1001.52
2023-05-04T12:18:45.906Z,1001.43
2023-05-04T12:19:45.948Z,1001.48
2023-05-04T12:20:45.865Z,1001.50